sensor_id;sensor_type;location;lat;lon;timestamp;P1;durP1;ratioP1;P2;durP2;ratioP2
21999;SDS011;11164;48.818;2.322;2023-07-20T00:02:13;6.32;;;2.65;;
21999;SDS011;11164;48.818;2.322;2023-07-20T00:04:39;7.72;;;2.35;;
21999;SDS011;11164;48.818;2.322;2023-07-20T00:07:04;7.63;;;2.85;;
21999;SDS011;11164;48.818;2.322;2023-07-20T00:09:30;6.10;;;2.60;;
21999;SDS011;11164;48.818;2.322;2023-07-20T00:11:55;7.18;;;2.40;;
21999;SDS011;11164;48.818;2.322;2023-07-20T00:14:21;6.80;;;2.40;;
21999;SDS011;11164;48.818;2.322;2023-07-20T00:16:47;4.68;;;2.40;;
21999;SDS011;11164;48.818;2.322;2023-07-20T00:19:14;6.95;;;2.63;;
21999;SDS011;11164;48.818;2.322;2023-07-20T00:21:39;6.13;;;2.50;;
21999;SDS011;11164;48.818;2.322;2023-07-20T00:24:05;9.73;;;2.80;;
21999;SDS011;11164;48.818;2.322;2023-07-20T00:26:31;5.85;;;2.58;;
21999;SDS011;11164;48.818;2.322;2023-07-20T00:28:56;7.38;;;2.53;;
21999;SDS011;11164;48.818;2.322;2023-07-20T00:31:22;7.93;;;2.70;;
21999;SDS011;11164;48.818;2.322;2023-07-20T00:33:47;8.07;;;2.75;;
21999;SDS011;11164;48.818;2.322;2023-07-20T00:36:13;7.03;;;2.80;;
21999;SDS011;11164;48.818;2.322;2023-07-20T00:38:39;7.03;;;2.67;;
21999;SDS011;11164;48.818;2.322;2023-07-20T00:41:04;8.68;;;2.70;;
21999;SDS011;11164;48.818;2.322;2023-07-20T00:43:30;7.82;;;2.60;;
21999;SDS011;11164;48.818;2.322;2023-07-20T00:45:55;7.80;;;3.13;;
21999;SDS011;11164;48.818;2.322;2023-07-20T00:48:21;6.13;;;2.70;;
21999;SDS011;11164;48.818;2.322;2023-07-20T00:50:47;7.70;;;2.70;;
21999;SDS011;11164;48.818;2.322;2023-07-20T00:53:13;7.05;;;2.95;;
21999;SDS011;11164;48.818;2.322;2023-07-20T00:55:39;9.65;;;2.70;;
21999;SDS011;11164;48.818;2.322;2023-07-20T00:58:04;5.78;;;2.65;;
21999;SDS011;11164;48.818;2.322;2023-07-20T01:00:30;6.70;;;2.92;;
21999;SDS011;11164;48.818;2.322;2023-07-20T01:02:56;7.25;;;2.70;;
21999;SDS011;11164;48.818;2.322;2023-07-20T01:05:23;7.18;;;2.67;;
21999;SDS011;11164;48.818;2.322;2023-07-20T01:07:59;6.45;;;2.75;;
21999;SDS011;11164;48.818;2.322;2023-07-20T01:10:33;7.07;;;3.00;;
21999;SDS011;11164;48.818;2.322;2023-07-20T01:13:04;7.30;;;3.08;;
21999;SDS011;11164;48.818;2.322;2023-07-20T01:15:33;8.93;;;3.30;;
21999;SDS011;11164;48.818;2.322;2023-07-20T01:17:59;7.80;;;2.75;;
21999;SDS011;11164;48.818;2.322;2023-07-20T01:20:26;7.80;;;3.03;;
21999;SDS011;11164;48.818;2.322;2023-07-20T01:23:07;5.35;;;2.72;;
21999;SDS011;11164;48.818;2.322;2023-07-20T01:25:58;7.15;;;2.60;;
21999;SDS011;11164;48.818;2.322;2023-07-20T01:28:39;6.97;;;2.92;;
21999;SDS011;11164;48.818;2.322;2023-07-20T01:31:24;9.68;;;3.05;;
21999;SDS011;11164;48.818;2.322;2023-07-20T01:33:54;8.02;;;2.40;;
21999;SDS011;11164;48.818;2.322;2023-07-20T01:36:22;13.60;;;2.58;;
21999;SDS011;11164;48.818;2.322;2023-07-20T01:38:50;5.30;;;2.60;;
21999;SDS011;11164;48.818;2.322;2023-07-20T01:41:16;7.05;;;2.70;;
21999;SDS011;11164;48.818;2.322;2023-07-20T01:43:43;8.40;;;2.78;;
21999;SDS011;11164;48.818;2.322;2023-07-20T01:46:08;7.55;;;2.70;;
21999;SDS011;11164;48.818;2.322;2023-07-20T01:48:34;7.30;;;2.63;;
21999;SDS011;11164;48.818;2.322;2023-07-20T01:50:59;11.15;;;2.83;;
21999;SDS011;11164;48.818;2.322;2023-07-20T01:53:24;6.70;;;2.65;;
21999;SDS011;11164;48.818;2.322;2023-07-20T01:55:52;5.40;;;2.40;;
21999;SDS011;11164;48.818;2.322;2023-07-20T01:58:19;6.28;;;2.70;;
21999;SDS011;11164;48.818;2.322;2023-07-20T02:00:44;5.68;;;3.00;;
21999;SDS011;11164;48.818;2.322;2023-07-20T02:03:10;7.07;;;3.28;;
21999;SDS011;11164;48.818;2.322;2023-07-20T02:05:36;6.97;;;2.63;;
21999;SDS011;11164;48.818;2.322;2023-07-20T02:08:02;7.28;;;2.83;;
21999;SDS011;11164;48.818;2.322;2023-07-20T02:10:27;6.28;;;2.80;;
21999;SDS011;11164;48.818;2.322;2023-07-20T02:12:53;5.88;;;2.90;;
21999;SDS011;11164;48.818;2.322;2023-07-20T02:15:18;6.82;;;2.95;;
21999;SDS011;11164;48.818;2.322;2023-07-20T02:17:44;8.35;;;3.13;;
21999;SDS011;11164;48.818;2.322;2023-07-20T02:20:09;9.60;;;3.25;;
21999;SDS011;11164;48.818;2.322;2023-07-20T02:22:36;7.55;;;2.97;;
21999;SDS011;11164;48.818;2.322;2023-07-20T02:25:03;6.38;;;2.80;;
21999;SDS011;11164;48.818;2.322;2023-07-20T02:27:29;7.50;;;2.80;;
21999;SDS011;11164;48.818;2.322;2023-07-20T02:29:55;7.65;;;3.05;;
21999;SDS011;11164;48.818;2.322;2023-07-20T02:32:21;6.07;;;2.65;;
21999;SDS011;11164;48.818;2.322;2023-07-20T02:34:46;6.10;;;2.92;;
21999;SDS011;11164;48.818;2.322;2023-07-20T02:37:12;10.77;;;3.25;;
21999;SDS011;11164;48.818;2.322;2023-07-20T02:39:37;7.80;;;3.30;;
21999;SDS011;11164;48.818;2.322;2023-07-20T02:42:03;12.52;;;3.50;;
21999;SDS011;11164;48.818;2.322;2023-07-20T02:44:28;5.22;;;2.97;;
21999;SDS011;11164;48.818;2.322;2023-07-20T02:46:55;8.40;;;2.78;;
21999;SDS011;11164;48.818;2.322;2023-07-20T02:49:20;7.57;;;3.10;;
21999;SDS011;11164;48.818;2.322;2023-07-20T02:51:45;5.65;;;3.00;;
21999;SDS011;11164;48.818;2.322;2023-07-20T02:54:11;7.95;;;2.90;;
21999;SDS011;11164;48.818;2.322;2023-07-20T02:56:36;8.05;;;3.00;;
21999;SDS011;11164;48.818;2.322;2023-07-20T02:59:01;6.85;;;3.15;;
21999;SDS011;11164;48.818;2.322;2023-07-20T03:01:27;7.57;;;3.05;;
21999;SDS011;11164;48.818;2.322;2023-07-20T03:03:54;6.45;;;3.35;;
21999;SDS011;11164;48.818;2.322;2023-07-20T03:06:19;6.68;;;3.17;;
21999;SDS011;11164;48.818;2.322;2023-07-20T03:08:45;11.13;;;3.38;;
21999;SDS011;11164;48.818;2.322;2023-07-20T03:11:12;9.02;;;3.38;;
21999;SDS011;11164;48.818;2.322;2023-07-20T03:13:39;7.82;;;3.60;;
21999;SDS011;11164;48.818;2.322;2023-07-20T03:16:05;10.82;;;3.08;;
21999;SDS011;11164;48.818;2.322;2023-07-20T03:18:39;8.20;;;3.20;;
21999;SDS011;11164;48.818;2.322;2023-07-20T03:21:05;7.63;;;2.85;;
21999;SDS011;11164;48.818;2.322;2023-07-20T03:23:31;8.57;;;3.13;;
21999;SDS011;11164;48.818;2.322;2023-07-20T03:25:56;6.47;;;3.20;;
21999;SDS011;11164;48.818;2.322;2023-07-20T03:28:22;10.27;;;3.22;;
21999;SDS011;11164;48.818;2.322;2023-07-20T03:30:52;11.18;;;2.83;;
21999;SDS011;11164;48.818;2.322;2023-07-20T03:33:19;7.03;;;3.15;;
21999;SDS011;11164;48.818;2.322;2023-07-20T03:35:44;8.30;;;3.40;;
21999;SDS011;11164;48.818;2.322;2023-07-20T03:38:10;8.00;;;2.95;;
21999;SDS011;11164;48.818;2.322;2023-07-20T03:40:35;7.95;;;3.20;;
21999;SDS011;11164;48.818;2.322;2023-07-20T03:43:00;9.65;;;3.22;;
21999;SDS011;11164;48.818;2.322;2023-07-20T03:45:25;8.05;;;3.03;;
21999;SDS011;11164;48.818;2.322;2023-07-20T03:47:51;9.20;;;2.80;;
21999;SDS011;11164;48.818;2.322;2023-07-20T03:50:16;6.72;;;2.80;;
21999;SDS011;11164;48.818;2.322;2023-07-20T03:52:41;7.90;;;3.10;;
21999;SDS011;11164;48.818;2.322;2023-07-20T03:55:07;10.05;;;3.10;;
21999;SDS011;11164;48.818;2.322;2023-07-20T03:57:33;6.22;;;3.00;;
21999;SDS011;11164;48.818;2.322;2023-07-20T03:59:58;7.55;;;2.70;;
21999;SDS011;11164;48.818;2.322;2023-07-20T04:02:24;7.35;;;3.00;;
21999;SDS011;11164;48.818;2.322;2023-07-20T04:04:50;9.57;;;2.95;;
21999;SDS011;11164;48.818;2.322;2023-07-20T04:07:15;8.23;;;3.20;;
21999;SDS011;11164;48.818;2.322;2023-07-20T04:09:40;10.52;;;2.95;;
21999;SDS011;11164;48.818;2.322;2023-07-20T04:12:06;8.13;;;2.97;;
21999;SDS011;11164;48.818;2.322;2023-07-20T04:14:32;9.32;;;3.17;;
21999;SDS011;11164;48.818;2.322;2023-07-20T04:16:57;7.35;;;3.10;;
21999;SDS011;11164;48.818;2.322;2023-07-20T04:19:25;12.77;;;3.65;;
21999;SDS011;11164;48.818;2.322;2023-07-20T04:21:50;7.88;;;2.95;;
21999;SDS011;11164;48.818;2.322;2023-07-20T04:24:16;13.38;;;3.60;;
21999;SDS011;11164;48.818;2.322;2023-07-20T04:26:41;10.15;;;3.50;;
21999;SDS011;11164;48.818;2.322;2023-07-20T04:29:06;7.80;;;3.55;;
21999;SDS011;11164;48.818;2.322;2023-07-20T04:31:32;9.52;;;3.50;;
21999;SDS011;11164;48.818;2.322;2023-07-20T04:33:58;8.68;;;3.65;;
21999;SDS011;11164;48.818;2.322;2023-07-20T04:36:23;9.77;;;3.70;;
21999;SDS011;11164;48.818;2.322;2023-07-20T04:38:48;10.13;;;3.63;;
21999;SDS011;11164;48.818;2.322;2023-07-20T04:41:14;11.88;;;3.78;;
21999;SDS011;11164;48.818;2.322;2023-07-20T04:43:43;9.05;;;4.53;;
21999;SDS011;11164;48.818;2.322;2023-07-20T04:46:09;12.85;;;3.92;;
21999;SDS011;11164;48.818;2.322;2023-07-20T04:48:35;9.82;;;3.53;;
21999;SDS011;11164;48.818;2.322;2023-07-20T04:51:01;7.05;;;3.45;;
21999;SDS011;11164;48.818;2.322;2023-07-20T04:53:26;10.30;;;3.47;;
21999;SDS011;11164;48.818;2.322;2023-07-20T04:55:51;10.07;;;3.20;;
21999;SDS011;11164;48.818;2.322;2023-07-20T04:58:17;11.18;;;3.50;;
21999;SDS011;11164;48.818;2.322;2023-07-20T05:00:43;9.98;;;3.33;;
21999;SDS011;11164;48.818;2.322;2023-07-20T05:03:09;9.90;;;3.80;;
21999;SDS011;11164;48.818;2.322;2023-07-20T05:05:34;9.55;;;3.08;;
21999;SDS011;11164;48.818;2.322;2023-07-20T05:07:59;8.55;;;3.38;;
21999;SDS011;11164;48.818;2.322;2023-07-20T05:10:25;9.65;;;3.35;;
21999;SDS011;11164;48.818;2.322;2023-07-20T05:12:50;9.75;;;3.28;;
21999;SDS011;11164;48.818;2.322;2023-07-20T05:15:15;8.45;;;3.30;;
21999;SDS011;11164;48.818;2.322;2023-07-20T05:17:41;9.65;;;3.10;;
21999;SDS011;11164;48.818;2.322;2023-07-20T05:20:06;8.98;;;3.35;;
21999;SDS011;11164;48.818;2.322;2023-07-20T05:22:34;8.70;;;3.10;;
21999;SDS011;11164;48.818;2.322;2023-07-20T05:25:00;8.90;;;3.08;;
21999;SDS011;11164;48.818;2.322;2023-07-20T05:27:25;6.60;;;3.00;;
21999;SDS011;11164;48.818;2.322;2023-07-20T05:29:51;8.63;;;3.17;;
21999;SDS011;11164;48.818;2.322;2023-07-20T05:32:16;10.00;;;3.40;;
21999;SDS011;11164;48.818;2.322;2023-07-20T05:34:42;16.55;;;4.90;;
21999;SDS011;11164;48.818;2.322;2023-07-20T05:37:07;8.73;;;3.25;;
21999;SDS011;11164;48.818;2.322;2023-07-20T05:39:33;10.75;;;3.70;;
21999;SDS011;11164;48.818;2.322;2023-07-20T05:41:58;8.40;;;3.13;;
21999;SDS011;11164;48.818;2.322;2023-07-20T05:44:23;8.52;;;2.63;;
21999;SDS011;11164;48.818;2.322;2023-07-20T05:46:49;11.88;;;3.00;;
21999;SDS011;11164;48.818;2.322;2023-07-20T05:49:14;15.77;;;4.05;;
21999;SDS011;11164;48.818;2.322;2023-07-20T05:51:39;8.40;;;3.00;;
21999;SDS011;11164;48.818;2.322;2023-07-20T05:54:05;10.23;;;3.17;;
21999;SDS011;11164;48.818;2.322;2023-07-20T05:56:30;11.85;;;3.33;;
21999;SDS011;11164;48.818;2.322;2023-07-20T05:58:56;13.63;;;3.50;;
21999;SDS011;11164;48.818;2.322;2023-07-20T06:01:21;7.55;;;3.20;;
21999;SDS011;11164;48.818;2.322;2023-07-20T06:03:47;6.88;;;3.30;;
21999;SDS011;11164;48.818;2.322;2023-07-20T06:06:12;8.45;;;4.07;;
21999;SDS011;11164;48.818;2.322;2023-07-20T06:08:38;8.43;;;3.58;;
21999;SDS011;11164;48.818;2.322;2023-07-20T06:11:03;8.50;;;3.17;;
21999;SDS011;11164;48.818;2.322;2023-07-20T06:13:29;9.80;;;3.90;;
21999;SDS011;11164;48.818;2.322;2023-07-20T06:15:54;8.68;;;4.03;;
21999;SDS011;11164;48.818;2.322;2023-07-20T06:18:22;6.32;;;3.55;;
21999;SDS011;11164;48.818;2.322;2023-07-20T06:20:48;8.52;;;3.15;;
21999;SDS011;11164;48.818;2.322;2023-07-20T06:23:18;8.43;;;3.40;;
21999;SDS011;11164;48.818;2.322;2023-07-20T06:25:44;7.57;;;3.33;;
21999;SDS011;11164;48.818;2.322;2023-07-20T06:28:09;7.50;;;2.90;;
21999;SDS011;11164;48.818;2.322;2023-07-20T06:30:35;10.15;;;3.30;;
21999;SDS011;11164;48.818;2.322;2023-07-20T06:33:00;7.35;;;2.88;;
21999;SDS011;11164;48.818;2.322;2023-07-20T06:35:25;8.55;;;3.00;;
21999;SDS011;11164;48.818;2.322;2023-07-20T06:37:51;8.23;;;3.30;;
21999;SDS011;11164;48.818;2.322;2023-07-20T06:40:17;10.95;;;3.47;;
21999;SDS011;11164;48.818;2.322;2023-07-20T06:42:42;8.25;;;3.22;;
21999;SDS011;11164;48.818;2.322;2023-07-20T06:45:08;6.88;;;3.20;;
21999;SDS011;11164;48.818;2.322;2023-07-20T06:47:34;6.70;;;3.22;;
21999;SDS011;11164;48.818;2.322;2023-07-20T06:49:59;7.60;;;3.00;;
21999;SDS011;11164;48.818;2.322;2023-07-20T06:52:25;8.00;;;3.30;;
21999;SDS011;11164;48.818;2.322;2023-07-20T06:54:50;7.43;;;3.20;;
21999;SDS011;11164;48.818;2.322;2023-07-20T06:57:16;9.98;;;3.40;;
21999;SDS011;11164;48.818;2.322;2023-07-20T06:59:41;10.07;;;3.70;;
21999;SDS011;11164;48.818;2.322;2023-07-20T07:02:07;10.57;;;3.25;;
21999;SDS011;11164;48.818;2.322;2023-07-20T07:04:32;9.05;;;3.30;;
21999;SDS011;11164;48.818;2.322;2023-07-20T07:06:57;11.30;;;3.38;;
21999;SDS011;11164;48.818;2.322;2023-07-20T07:09:22;7.65;;;3.20;;
21999;SDS011;11164;48.818;2.322;2023-07-20T07:11:49;7.88;;;3.20;;
21999;SDS011;11164;48.818;2.322;2023-07-20T07:14:15;12.13;;;3.53;;
21999;SDS011;11164;48.818;2.322;2023-07-20T07:16:40;6.90;;;3.28;;
21999;SDS011;11164;48.818;2.322;2023-07-20T07:19:06;9.23;;;3.15;;
21999;SDS011;11164;48.818;2.322;2023-07-20T07:21:33;10.48;;;3.20;;
21999;SDS011;11164;48.818;2.322;2023-07-20T07:23:58;7.50;;;3.25;;
21999;SDS011;11164;48.818;2.322;2023-07-20T07:26:24;6.35;;;2.88;;
21999;SDS011;11164;48.818;2.322;2023-07-20T07:28:50;7.60;;;3.20;;
21999;SDS011;11164;48.818;2.322;2023-07-20T07:31:15;8.50;;;2.75;;
21999;SDS011;11164;48.818;2.322;2023-07-20T07:33:41;6.88;;;2.83;;
21999;SDS011;11164;48.818;2.322;2023-07-20T07:36:06;7.38;;;2.97;;
21999;SDS011;11164;48.818;2.322;2023-07-20T07:38:32;8.60;;;2.90;;
21999;SDS011;11164;48.818;2.322;2023-07-20T07:40:58;9.95;;;3.30;;
21999;SDS011;11164;48.818;2.322;2023-07-20T07:43:24;6.38;;;2.70;;
21999;SDS011;11164;48.818;2.322;2023-07-20T07:45:49;7.55;;;2.83;;
21999;SDS011;11164;48.818;2.322;2023-07-20T07:48:15;6.18;;;2.92;;
21999;SDS011;11164;48.818;2.322;2023-07-20T07:50:40;6.18;;;2.10;;
21999;SDS011;11164;48.818;2.322;2023-07-20T07:53:07;6.50;;;2.33;;
21999;SDS011;11164;48.818;2.322;2023-07-20T07:55:33;6.63;;;2.22;;
21999;SDS011;11164;48.818;2.322;2023-07-20T07:57:59;5.22;;;2.15;;
21999;SDS011;11164;48.818;2.322;2023-07-20T08:00:24;6.22;;;2.17;;
21999;SDS011;11164;48.818;2.322;2023-07-20T08:02:50;7.15;;;2.20;;
21999;SDS011;11164;48.818;2.322;2023-07-20T08:05:15;3.97;;;2.05;;
21999;SDS011;11164;48.818;2.322;2023-07-20T08:07:41;6.10;;;1.90;;
21999;SDS011;11164;48.818;2.322;2023-07-20T08:10:07;6.10;;;1.88;;
21999;SDS011;11164;48.818;2.322;2023-07-20T08:12:34;4.82;;;1.73;;
21999;SDS011;11164;48.818;2.322;2023-07-20T08:15:00;8.05;;;1.88;;
21999;SDS011;11164;48.818;2.322;2023-07-20T08:17:26;8.27;;;2.20;;
21999;SDS011;11164;48.818;2.322;2023-07-20T08:19:51;5.60;;;2.13;;
21999;SDS011;11164;48.818;2.322;2023-07-20T08:22:16;5.35;;;2.08;;
21999;SDS011;11164;48.818;2.322;2023-07-20T08:24:42;5.03;;;1.90;;
21999;SDS011;11164;48.818;2.322;2023-07-20T08:27:08;7.78;;;1.77;;
21999;SDS011;11164;48.818;2.322;2023-07-20T08:29:37;7.65;;;2.33;;
21999;SDS011;11164;48.818;2.322;2023-07-20T08:32:03;6.20;;;1.73;;
21999;SDS011;11164;48.818;2.322;2023-07-20T08:34:29;6.05;;;1.77;;
21999;SDS011;11164;48.818;2.322;2023-07-20T08:36:55;4.78;;;2.05;;
21999;SDS011;11164;48.818;2.322;2023-07-20T08:39:21;3.63;;;1.70;;
21999;SDS011;11164;48.818;2.322;2023-07-20T08:41:47;4.75;;;1.77;;
21999;SDS011;11164;48.818;2.322;2023-07-20T08:44:13;4.22;;;1.70;;
21999;SDS011;11164;48.818;2.322;2023-07-20T08:46:40;4.43;;;1.73;;
21999;SDS011;11164;48.818;2.322;2023-07-20T08:49:06;5.50;;;1.80;;
21999;SDS011;11164;48.818;2.322;2023-07-20T08:51:31;4.90;;;1.52;;
21999;SDS011;11164;48.818;2.322;2023-07-20T08:53:58;4.78;;;1.58;;
21999;SDS011;11164;48.818;2.322;2023-07-20T08:56:25;5.43;;;1.80;;
21999;SDS011;11164;48.818;2.322;2023-07-20T08:58:54;5.25;;;1.90;;
21999;SDS011;11164;48.818;2.322;2023-07-20T09:01:21;4.55;;;1.77;;
21999;SDS011;11164;48.818;2.322;2023-07-20T09:03:47;8.43;;;1.80;;
21999;SDS011;11164;48.818;2.322;2023-07-20T09:06:13;6.68;;;1.65;;
21999;SDS011;11164;48.818;2.322;2023-07-20T09:08:40;10.82;;;2.38;;
21999;SDS011;11164;48.818;2.322;2023-07-20T09:11:05;4.38;;;1.60;;
21999;SDS011;11164;48.818;2.322;2023-07-20T09:13:34;6.22;;;1.70;;
21999;SDS011;11164;48.818;2.322;2023-07-20T09:16:00;5.40;;;1.70;;
21999;SDS011;11164;48.818;2.322;2023-07-20T09:18:27;4.50;;;2.00;;
21999;SDS011;11164;48.818;2.322;2023-07-20T09:21:27;7.45;;;1.73;;
21999;SDS011;11164;48.818;2.322;2023-07-20T09:23:45;4.30;;;1.23;;
21999;SDS011;11164;48.818;2.322;2023-07-20T09:26:11;4.78;;;1.30;;
21999;SDS011;11164;48.818;2.322;2023-07-20T09:28:47;3.28;;;1.20;;
21999;SDS011;11164;48.818;2.322;2023-07-20T09:31:15;5.40;;;1.42;;
21999;SDS011;11164;48.818;2.322;2023-07-20T09:33:45;3.00;;;1.27;;
21999;SDS011;11164;48.818;2.322;2023-07-20T09:36:11;6.22;;;1.40;;
21999;SDS011;11164;48.818;2.322;2023-07-20T09:38:37;3.30;;;1.20;;
21999;SDS011;11164;48.818;2.322;2023-07-20T09:41:08;2.60;;;1.42;;
21999;SDS011;11164;48.818;2.322;2023-07-20T09:43:36;7.32;;;1.65;;
21999;SDS011;11164;48.818;2.322;2023-07-20T09:46:01;3.67;;;1.15;;
21999;SDS011;11164;48.818;2.322;2023-07-20T09:48:27;2.92;;;1.33;;
21999;SDS011;11164;48.818;2.322;2023-07-20T09:50:52;2.72;;;1.05;;
21999;SDS011;11164;48.818;2.322;2023-07-20T09:53:19;2.50;;;1.10;;
21999;SDS011;11164;48.818;2.322;2023-07-20T09:55:45;6.03;;;1.33;;
21999;SDS011;11164;48.818;2.322;2023-07-20T09:58:12;4.63;;;1.40;;
21999;SDS011;11164;48.818;2.322;2023-07-20T10:00:39;4.63;;;1.38;;
21999;SDS011;11164;48.818;2.322;2023-07-20T10:03:06;4.65;;;1.40;;
21999;SDS011;11164;48.818;2.322;2023-07-20T10:05:43;3.45;;;1.30;;
21999;SDS011;11164;48.818;2.322;2023-07-20T10:08:12;2.95;;;1.20;;
21999;SDS011;11164;48.818;2.322;2023-07-20T10:10:38;5.28;;;1.10;;
21999;SDS011;11164;48.818;2.322;2023-07-20T10:13:06;4.32;;;1.40;;
21999;SDS011;11164;48.818;2.322;2023-07-20T10:15:43;2.85;;;1.35;;
21999;SDS011;11164;48.818;2.322;2023-07-20T10:18:14;4.88;;;1.50;;
21999;SDS011;11164;48.818;2.322;2023-07-20T10:20:42;4.80;;;1.50;;
21999;SDS011;11164;48.818;2.322;2023-07-20T10:23:09;3.33;;;1.30;;
21999;SDS011;11164;48.818;2.322;2023-07-20T10:25:35;2.80;;;1.10;;
21999;SDS011;11164;48.818;2.322;2023-07-20T10:28:04;4.75;;;1.40;;
21999;SDS011;11164;48.818;2.322;2023-07-20T10:30:31;4.63;;;1.45;;
21999;SDS011;11164;48.818;2.322;2023-07-20T10:32:58;4.03;;;1.30;;
21999;SDS011;11164;48.818;2.322;2023-07-20T10:35:27;4.10;;;1.23;;
21999;SDS011;11164;48.818;2.322;2023-07-20T10:37:54;5.25;;;1.63;;
21999;SDS011;11164;48.818;2.322;2023-07-20T10:42:50;3.50;;;1.17;;
21999;SDS011;11164;48.818;2.322;2023-07-20T10:45:16;3.50;;;1.30;;
21999;SDS011;11164;48.818;2.322;2023-07-20T10:47:46;4.00;;;1.45;;
21999;SDS011;11164;48.818;2.322;2023-07-20T10:50:11;5.05;;;1.60;;
21999;SDS011;11164;48.818;2.322;2023-07-20T10:52:37;3.00;;;1.30;;
21999;SDS011;11164;48.818;2.322;2023-07-20T10:55:13;2.25;;;1.08;;
21999;SDS011;11164;48.818;2.322;2023-07-20T10:57:39;2.95;;;1.27;;
21999;SDS011;11164;48.818;2.322;2023-07-20T11:00:08;3.35;;;1.20;;
21999;SDS011;11164;48.818;2.322;2023-07-20T11:02:42;4.00;;;1.20;;
21999;SDS011;11164;48.818;2.322;2023-07-20T11:05:57;4.70;;;1.30;;
21999;SDS011;11164;48.818;2.322;2023-07-20T11:08:05;4.13;;;1.67;;
21999;SDS011;11164;48.818;2.322;2023-07-20T11:10:34;5.13;;;1.48;;
21999;SDS011;11164;48.818;2.322;2023-07-20T11:13:18;3.53;;;1.42;;
21999;SDS011;11164;48.818;2.322;2023-07-20T11:15:47;3.67;;;1.70;;
21999;SDS011;11164;48.818;2.322;2023-07-20T11:18:26;6.68;;;1.55;;
21999;SDS011;11164;48.818;2.322;2023-07-20T11:20:51;3.55;;;1.38;;
21999;SDS011;11164;48.818;2.322;2023-07-20T11:23:19;5.55;;;1.52;;
21999;SDS011;11164;48.818;2.322;2023-07-20T11:25:45;2.92;;;1.10;;
21999;SDS011;11164;48.818;2.322;2023-07-20T11:28:11;2.88;;;1.15;;
21999;SDS011;11164;48.818;2.322;2023-07-20T11:30:37;3.20;;;1.40;;
21999;SDS011;11164;48.818;2.322;2023-07-20T11:33:08;3.63;;;1.40;;
21999;SDS011;11164;48.818;2.322;2023-07-20T11:35:42;3.58;;;1.13;;
21999;SDS011;11164;48.818;2.322;2023-07-20T11:38:08;3.05;;;1.40;;
21999;SDS011;11164;48.818;2.322;2023-07-20T11:40:33;5.28;;;1.58;;
21999;SDS011;11164;48.818;2.322;2023-07-20T11:42:59;3.17;;;0.90;;
21999;SDS011;11164;48.818;2.322;2023-07-20T11:45:25;2.28;;;1.10;;
21999;SDS011;11164;48.818;2.322;2023-07-20T11:47:50;6.03;;;1.20;;
21999;SDS011;11164;48.818;2.322;2023-07-20T11:50:15;4.13;;;1.00;;
21999;SDS011;11164;48.818;2.322;2023-07-20T11:52:41;3.17;;;1.13;;
21999;SDS011;11164;48.818;2.322;2023-07-20T11:55:06;3.22;;;1.00;;
21999;SDS011;11164;48.818;2.322;2023-07-20T11:57:32;3.88;;;1.38;;
21999;SDS011;11164;48.818;2.322;2023-07-20T12:00:00;4.10;;;1.38;;
21999;SDS011;11164;48.818;2.322;2023-07-20T12:02:30;4.63;;;1.25;;
21999;SDS011;11164;48.818;2.322;2023-07-20T12:04:56;3.83;;;1.48;;
21999;SDS011;11164;48.818;2.322;2023-07-20T12:07:22;2.85;;;1.20;;
21999;SDS011;11164;48.818;2.322;2023-07-20T12:10:04;2.72;;;1.00;;
21999;SDS011;11164;48.818;2.322;2023-07-20T12:12:33;2.50;;;0.98;;
21999;SDS011;11164;48.818;2.322;2023-07-20T12:15:15;2.60;;;1.08;;
21999;SDS011;11164;48.818;2.322;2023-07-20T12:17:45;2.88;;;1.00;;
21999;SDS011;11164;48.818;2.322;2023-07-20T12:20:11;2.90;;;1.05;;
21999;SDS011;11164;48.818;2.322;2023-07-20T12:22:40;5.18;;;1.08;;
21999;SDS011;11164;48.818;2.322;2023-07-20T12:25:08;2.35;;;0.95;;
21999;SDS011;11164;48.818;2.322;2023-07-20T12:27:37;1.75;;;0.80;;
21999;SDS011;11164;48.818;2.322;2023-07-20T12:30:06;3.70;;;1.27;;
21999;SDS011;11164;48.818;2.322;2023-07-20T12:32:32;3.92;;;1.40;;
21999;SDS011;11164;48.818;2.322;2023-07-20T12:34:58;2.88;;;0.82;;
21999;SDS011;11164;48.818;2.322;2023-07-20T12:37:25;2.60;;;1.10;;
21999;SDS011;11164;48.818;2.322;2023-07-20T12:39:51;3.05;;;1.10;;
21999;SDS011;11164;48.818;2.322;2023-07-20T12:42:16;3.80;;;0.97;;
21999;SDS011;11164;48.818;2.322;2023-07-20T12:44:42;2.20;;;1.00;;
21999;SDS011;11164;48.818;2.322;2023-07-20T12:47:07;2.50;;;1.05;;
21999;SDS011;11164;48.818;2.322;2023-07-20T12:49:32;3.00;;;1.15;;
21999;SDS011;11164;48.818;2.322;2023-07-20T12:51:58;2.72;;;1.05;;
21999;SDS011;11164;48.818;2.322;2023-07-20T12:54:23;5.05;;;1.20;;
21999;SDS011;11164;48.818;2.322;2023-07-20T12:56:48;2.53;;;0.90;;
21999;SDS011;11164;48.818;2.322;2023-07-20T12:59:14;3.30;;;1.00;;
21999;SDS011;11164;48.818;2.322;2023-07-20T13:01:39;2.83;;;0.93;;
21999;SDS011;11164;48.818;2.322;2023-07-20T13:04:06;4.25;;;1.10;;
21999;SDS011;11164;48.818;2.322;2023-07-20T13:06:34;3.55;;;1.58;;
21999;SDS011;11164;48.818;2.322;2023-07-20T13:08:59;3.53;;;0.93;;
21999;SDS011;11164;48.818;2.322;2023-07-20T13:11:25;2.88;;;0.90;;
21999;SDS011;11164;48.818;2.322;2023-07-20T13:13:50;2.50;;;0.90;;
21999;SDS011;11164;48.818;2.322;2023-07-20T13:16:15;6.27;;;1.63;;
21999;SDS011;11164;48.818;2.322;2023-07-20T13:18:41;2.58;;;1.00;;
21999;SDS011;11164;48.818;2.322;2023-07-20T13:21:07;2.58;;;1.05;;
21999;SDS011;11164;48.818;2.322;2023-07-20T13:23:35;3.38;;;0.95;;
21999;SDS011;11164;48.818;2.322;2023-07-20T13:26:04;4.85;;;1.10;;
21999;SDS011;11164;48.818;2.322;2023-07-20T13:28:30;3.45;;;1.20;;
21999;SDS011;11164;48.818;2.322;2023-07-20T13:30:55;3.90;;;1.58;;
21999;SDS011;11164;48.818;2.322;2023-07-20T13:33:20;3.05;;;1.10;;
21999;SDS011;11164;48.818;2.322;2023-07-20T13:35:46;3.63;;;0.90;;
21999;SDS011;11164;48.818;2.322;2023-07-20T13:38:11;4.00;;;1.20;;
21999;SDS011;11164;48.818;2.322;2023-07-20T13:40:37;2.85;;;1.00;;
21999;SDS011;11164;48.818;2.322;2023-07-20T13:43:02;4.80;;;1.30;;
21999;SDS011;11164;48.818;2.322;2023-07-20T13:45:27;3.10;;;1.07;;
21999;SDS011;11164;48.818;2.322;2023-07-20T13:47:53;4.20;;;1.00;;
21999;SDS011;11164;48.818;2.322;2023-07-20T13:50:18;3.80;;;1.20;;
21999;SDS011;11164;48.818;2.322;2023-07-20T13:52:43;2.13;;;1.10;;
21999;SDS011;11164;48.818;2.322;2023-07-20T13:55:09;2.23;;;1.10;;
21999;SDS011;11164;48.818;2.322;2023-07-20T13:57:34;4.32;;;1.10;;
21999;SDS011;11164;48.818;2.322;2023-07-20T13:59:59;3.53;;;1.20;;
21999;SDS011;11164;48.818;2.322;2023-07-20T14:02:26;2.75;;;1.17;;
21999;SDS011;11164;48.818;2.322;2023-07-20T14:04:51;2.15;;;1.00;;
21999;SDS011;11164;48.818;2.322;2023-07-20T14:07:19;2.70;;;1.27;;
21999;SDS011;11164;48.818;2.322;2023-07-20T14:09:45;2.87;;;1.17;;
21999;SDS011;11164;48.818;2.322;2023-07-20T14:12:10;3.67;;;1.10;;
21999;SDS011;11164;48.818;2.322;2023-07-20T14:14:38;3.17;;;1.50;;
21999;SDS011;11164;48.818;2.322;2023-07-20T14:17:04;2.47;;;1.10;;
21999;SDS011;11164;48.818;2.322;2023-07-20T14:19:29;3.17;;;1.30;;
21999;SDS011;11164;48.818;2.322;2023-07-20T14:21:55;3.87;;;1.10;;
21999;SDS011;11164;48.818;2.322;2023-07-20T14:24:20;3.40;;;1.10;;
21999;SDS011;11164;48.818;2.322;2023-07-20T14:26:45;4.55;;;1.40;;
21999;SDS011;11164;48.818;2.322;2023-07-20T14:29:13;2.60;;;1.05;;
21999;SDS011;11164;48.818;2.322;2023-07-20T14:31:38;2.23;;;1.03;;
21999;SDS011;11164;48.818;2.322;2023-07-20T14:34:04;3.83;;;1.10;;
21999;SDS011;11164;48.818;2.322;2023-07-20T14:36:29;5.80;;;1.30;;
21999;SDS011;11164;48.818;2.322;2023-07-20T14:38:54;3.25;;;0.90;;
21999;SDS011;11164;48.818;2.322;2023-07-20T14:41:20;2.43;;;1.00;;
21999;SDS011;11164;48.818;2.322;2023-07-20T14:43:45;3.80;;;1.17;;
21999;SDS011;11164;48.818;2.322;2023-07-20T14:46:11;2.63;;;1.03;;